createdAt,value
2023-05-02T00:00:37.932Z,76.26
2023-05-02T00:03:24.138Z,76.36
2023-05-02T00:06:00.968Z,76.46
2023-05-02T00:08:37.544Z,76.65
2023-05-02T00:11:14.550Z,76.82
2023-05-02T00:13:50.915Z,77.04
2023-05-02T00:16:27.439Z,77.13
2023-05-02T00:19:03.895Z,77.26
2023-05-02T00:21:40.421Z,77.44
2023-05-02T00:24:16.883Z,77.62
2023-05-02T00:26:53.519Z,77.74
2023-05-02T00:29:30.150Z,77.93
2023-05-02T00:32:06.972Z,78.12
2023-05-02T00:34:43.359Z,78.20
2023-05-02T00:37:20.153Z,78.40
2023-05-02T00:39:56.504Z,78.56
2023-05-02T00:42:36.197Z,78.73
2023-05-02T00:45:14.402Z,78.86
2023-05-02T00:47:50.773Z,79.13
2023-05-02T00:50:30.225Z,79.36
2023-05-02T00:53:08.283Z,79.45
2023-05-02T00:55:44.778Z,79.62
2023-05-02T00:58:22.910Z,79.85
2023-05-02T01:01:23.311Z,79.92
2023-05-02T01:04:23.114Z,79.75
2023-05-02T01:07:42.446Z,79.76
2023-05-02T01:10:37.491Z,79.74
2023-05-02T01:13:22.256Z,79.78
2023-05-02T01:16:04.717Z,79.88
2023-05-02T01:18:45.061Z,80.00
2023-05-02T01:21:21.558Z,80.08
2023-05-02T01:24:15.718Z,80.24
2023-05-02T01:27:24.196Z,80.40
2023-05-02T01:30:04.606Z,80.50
2023-05-02T01:32:45.072Z,80.60
2023-05-02T01:35:24.312Z,80.72
2023-05-02T01:38:03.808Z,80.88
2023-05-02T01:40:43.246Z,80.91
2023-05-02T01:43:22.688Z,81.03
2023-05-02T01:46:02.087Z,81.13
2023-05-02T01:48:40.206Z,81.16
2023-05-02T01:51:19.146Z,81.24
2023-05-02T01:53:57.709Z,81.27
2023-05-02T01:56:37.917Z,81.35
2023-05-02T01:59:19.833Z,81.45
2023-05-02T02:01:57.675Z,81.51
2023-05-02T02:04:36.276Z,81.53
2023-05-02T02:07:17.630Z,81.58
2023-05-02T02:09:54.406Z,81.66
2023-05-02T02:12:37.883Z,81.71
2023-05-02T02:15:26.478Z,81.72
2023-05-02T02:18:11.633Z,81.77
2023-05-02T02:20:51.999Z,81.78
2023-05-02T02:23:34.302Z,81.78
2023-05-02T02:26:11.699Z,81.73
2023-05-02T02:28:49.251Z,81.78
2023-05-02T02:31:26.397Z,81.80
2023-05-02T02:34:03.616Z,81.83
2023-05-02T02:36:49.337Z,81.89
2023-05-02T02:39:45.500Z,81.95
2023-05-02T02:42:35.289Z,82.04
2023-05-02T02:45:31.265Z,82.04
2023-05-02T02:48:28.071Z,82.06
2023-05-02T02:51:16.121Z,82.10
2023-05-02T02:54:25.933Z,82.15
2023-05-02T02:57:26.081Z,82.19
2023-05-02T03:00:13.267Z,82.23
2023-05-02T03:02:53.309Z,82.35
2023-05-02T03:05:30.529Z,82.44
2023-05-02T03:08:07.657Z,82.53
2023-05-02T03:10:44.050Z,82.62
2023-05-02T03:13:20.510Z,82.71
2023-05-02T03:16:42.832Z,82.81
2023-05-02T03:19:21.692Z,82.78
2023-05-02T03:21:58.556Z,82.83
2023-05-02T03:24:34.920Z,82.89
2023-05-02T03:27:12.391Z,82.97
2023-05-02T03:29:49.880Z,83.05
2023-05-02T03:32:26.947Z,83.05
2023-05-02T03:35:04.044Z,82.58
2023-05-02T03:37:41.415Z,82.80
2023-05-02T03:40:21.836Z,83.01
2023-05-02T03:42:58.571Z,83.13
2023-05-02T03:45:37.480Z,83.21
2023-05-02T03:48:13.932Z,83.25
2023-05-02T03:50:51.097Z,83.19
2023-05-02T03:53:28.030Z,83.01
2023-05-02T03:56:08.103Z,82.81
2023-05-02T03:58:51.030Z,82.65
2023-05-02T04:01:28.527Z,82.04
2023-05-02T04:04:06.532Z,81.40
2023-05-02T04:06:47.509Z,80.59
2023-05-02T04:09:25.536Z,79.77
2023-05-02T04:12:18.109Z,78.89
2023-05-02T04:14:57.715Z,78.00
2023-05-02T04:17:39.098Z,77.08
2023-05-02T04:20:18.533Z,76.27
2023-05-02T04:22:58.503Z,75.51
2023-05-02T04:25:35.743Z,74.77
2023-05-02T04:28:13.258Z,74.13
2023-05-02T04:30:50.027Z,73.18
2023-05-02T04:33:28.629Z,72.24
2023-05-02T04:36:05.716Z,71.41
2023-05-02T04:38:43.123Z,70.59
2023-05-02T04:41:21.626Z,69.81
2023-05-02T04:44:03.836Z,69.02
2023-05-02T04:46:40.580Z,67.89
2023-05-02T04:49:16.926Z,66.47
2023-05-02T04:51:53.781Z,64.80
2023-05-02T04:54:31.328Z,63.27
2023-05-02T04:57:08.251Z,61.63
2023-05-02T04:59:46.991Z,60.16
2023-05-02T05:02:23.448Z,57.88
2023-05-02T05:05:02.207Z,55.44
2023-05-02T05:07:38.665Z,50.79
2023-05-02T05:10:16.001Z,51.05
2023-05-02T05:12:55.167Z,49.96
2023-05-02T05:15:31.740Z,44.80
2023-05-02T05:18:10.257Z,43.55
2023-05-02T05:20:46.904Z,43.18
2023-05-02T05:23:23.468Z,42.45
2023-05-02T05:26:00.018Z,41.70
2023-05-02T05:28:36.612Z,40.28
2023-05-02T05:31:17.207Z,39.70
2023-05-02T05:33:56.640Z,38.72
2023-05-02T05:36:33.775Z,37.60
2023-05-02T05:39:12.150Z,36.82
2023-05-02T05:41:50.307Z,35.94
2023-05-02T05:44:27.078Z,35.67
2023-05-02T05:47:03.608Z,34.00
2023-05-02T05:49:40.142Z,34.42
2023-05-02T05:52:19.459Z,33.90
2023-05-02T05:54:58.245Z,33.51
2023-05-02T05:57:36.398Z,33.50
2023-05-02T06:00:18.158Z,33.06
2023-05-02T06:02:56.234Z,32.81
2023-05-02T06:05:37.284Z,32.51
2023-05-02T06:08:13.671Z,33.04
2023-05-02T06:10:50.689Z,31.55
2023-05-02T06:13:27.382Z,29.54
2023-05-02T06:16:09.105Z,29.62
2023-05-02T06:18:45.388Z,29.25
2023-05-02T06:21:23.555Z,28.45
2023-05-02T06:24:00.038Z,27.37
2023-05-02T06:26:36.509Z,27.56
2023-05-02T06:29:12.852Z,26.27
2023-05-02T06:31:51.216Z,26.37
2023-05-02T06:34:27.619Z,26.61
2023-05-02T06:37:04.093Z,26.92
2023-05-02T06:39:42.747Z,26.72
2023-05-02T06:42:19.003Z,26.12
2023-05-02T06:44:56.110Z,26.45
2023-05-02T06:47:32.653Z,26.84
2023-05-02T06:50:11.746Z,25.99
2023-05-02T06:52:48.049Z,26.20
2023-05-02T06:55:24.479Z,26.38
2023-05-02T06:58:01.028Z,26.14
2023-05-02T07:00:37.467Z,26.03
2023-05-02T07:03:13.965Z,26.55
2023-05-02T07:05:50.353Z,26.42
2023-05-02T07:08:28.456Z,27.04
2023-05-02T07:11:05.091Z,27.57
2023-05-02T07:13:41.362Z,28.22
2023-05-02T07:16:17.854Z,28.04
2023-05-02T07:18:54.110Z,27.87
2023-05-02T07:21:30.806Z,28.10
2023-05-02T07:24:08.001Z,28.66
2023-05-02T07:26:44.208Z,29.38
2023-05-02T07:29:20.657Z,29.29
2023-05-02T07:31:57.123Z,29.04
2023-05-02T07:34:33.420Z,28.66
2023-05-02T07:37:09.819Z,28.40
2023-05-02T07:39:46.379Z,28.91
2023-05-02T07:42:22.662Z,29.24
2023-05-02T07:44:59.206Z,29.76
2023-05-02T07:47:38.928Z,30.20
2023-05-02T07:50:17.119Z,30.42
2023-05-02T07:52:53.545Z,30.78
2023-05-02T07:55:31.464Z,31.36
2023-05-02T07:58:08.067Z,31.80
2023-05-02T08:00:44.586Z,31.99
2023-05-02T08:03:21.221Z,32.28
2023-05-02T08:05:57.983Z,32.60
2023-05-02T08:08:34.404Z,33.10
2023-05-02T08:11:10.848Z,33.50
2023-05-02T08:13:47.374Z,33.94
2023-05-02T08:16:24.406Z,34.73
2023-05-02T08:19:00.774Z,34.84
2023-05-02T08:21:37.270Z,35.27
2023-05-02T08:24:13.857Z,35.67
2023-05-02T08:26:50.905Z,35.80
2023-05-02T08:29:28.036Z,36.34
2023-05-02T08:32:07.937Z,36.56
2023-05-02T08:34:45.170Z,36.48
2023-05-02T08:37:22.345Z,36.87
2023-05-02T08:39:59.762Z,37.16
2023-05-02T08:42:39.552Z,37.55
2023-05-02T08:45:31.036Z,37.36
2023-05-02T08:48:17.032Z,37.66
2023-05-02T08:50:56.454Z,37.48
2023-05-02T08:53:36.466Z,37.54
2023-05-02T08:56:16.956Z,37.39
2023-05-02T08:58:56.009Z,37.44
2023-05-02T09:01:46.533Z,37.16
2023-05-02T09:04:30.667Z,37.29
2023-05-02T09:07:08.736Z,37.18
2023-05-02T09:09:47.244Z,36.85
2023-05-02T09:12:30.003Z,36.96
2023-05-02T09:15:24.183Z,37.07
2023-05-02T09:18:03.166Z,37.31
2023-05-02T09:20:46.538Z,37.57
2023-05-02T09:23:35.940Z,37.25
2023-05-02T09:26:28.836Z,37.29
2023-05-02T09:29:08.450Z,37.24
2023-05-02T09:31:56.365Z,37.06
2023-05-02T09:34:34.980Z,37.11
2023-05-02T09:37:13.765Z,37.40
2023-05-02T09:40:12.620Z,37.82
2023-05-02T09:42:49.879Z,37.74
2023-05-02T09:45:31.450Z,37.94
2023-05-02T09:48:10.110Z,38.04
2023-05-02T09:50:48.229Z,37.85
2023-05-02T09:53:30.429Z,38.11
2023-05-02T09:56:11.606Z,38.46
2023-05-02T09:58:51.372Z,38.61
2023-05-02T10:01:29.531Z,38.73
2023-05-02T10:04:11.453Z,39.11
2023-05-02T10:06:51.835Z,39.44
2023-05-02T10:09:32.815Z,39.78
2023-05-02T10:12:11.304Z,39.83
2023-05-02T10:15:00.155Z,40.32
2023-05-02T10:17:49.569Z,40.43
2023-05-02T10:20:37.355Z,40.37
2023-05-02T10:23:16.378Z,40.21
2023-05-02T10:25:54.542Z,40.21
2023-05-02T10:28:33.424Z,39.49
2023-05-02T10:31:13.252Z,39.08
2023-05-02T10:33:57.361Z,38.61
2023-05-02T10:36:37.512Z,38.33
2023-05-02T10:39:17.305Z,37.22
2023-05-02T10:41:59.471Z,37.07
2023-05-02T10:44:46.321Z,37.31
2023-05-02T10:47:30.545Z,37.65
2023-05-02T10:50:10.476Z,37.59
2023-05-02T10:52:47.512Z,37.66
2023-05-02T10:55:26.989Z,37.19
2023-05-02T10:58:27.204Z,37.20
2023-05-02T11:01:42.240Z,36.82
2023-05-02T11:04:19.884Z,36.72
2023-05-02T11:07:23.320Z,36.28
2023-05-02T11:10:30.155Z,36.43
2023-05-02T11:13:07.098Z,36.38
2023-05-02T11:16:02.711Z,36.43
2023-05-02T11:19:05.390Z,36.07
2023-05-02T11:21:42.236Z,35.85
2023-05-02T11:24:44.904Z,35.94
2023-05-02T11:27:47.906Z,35.89
2023-05-02T11:30:43.946Z,35.53
2023-05-02T11:33:24.483Z,35.88
2023-05-02T11:36:01.335Z,35.08
2023-05-02T11:38:43.367Z,35.28
2023-05-02T11:41:20.190Z,34.96
2023-05-02T11:44:08.858Z,35.43
2023-05-02T11:46:48.115Z,35.33
2023-05-02T11:49:25.059Z,34.45
2023-05-02T11:52:04.457Z,34.30
2023-05-02T11:54:41.413Z,34.16
2023-05-02T11:57:18.115Z,34.68
2023-05-02T12:00:01.818Z,34.31
2023-05-02T12:02:48.970Z,34.34
2023-05-02T12:05:34.361Z,34.55
2023-05-02T12:08:21.958Z,34.81
2023-05-02T12:11:00.443Z,34.96
2023-05-02T12:13:45.540Z,35.09
2023-05-02T12:16:24.150Z,35.26
2023-05-02T12:19:01.725Z,34.95
2023-05-02T12:21:38.788Z,35.24
2023-05-02T12:24:15.539Z,35.04
2023-05-02T12:27:09.833Z,34.80
2023-05-02T12:29:50.290Z,34.51
2023-05-02T12:32:38.267Z,34.33
2023-05-02T12:35:27.653Z,34.62
2023-05-02T12:38:17.825Z,34.93
2023-05-02T12:40:58.652Z,33.79
2023-05-02T12:43:49.771Z,33.63
2023-05-02T12:46:25.193Z,33.96
2023-05-02T12:49:12.648Z,34.33
2023-05-02T12:52:00.341Z,34.35
2023-05-02T12:54:37.429Z,34.71
2023-05-02T12:57:26.075Z,34.73
2023-05-02T13:00:03.535Z,35.18
2023-05-02T13:02:43.332Z,35.59
2023-05-02T13:05:24.953Z,36.68
2023-05-02T13:08:02.519Z,37.83
2023-05-02T13:10:39.722Z,38.37
2023-05-02T13:13:16.936Z,38.74
2023-05-02T13:15:54.199Z,39.45
2023-05-02T13:18:31.207Z,40.29
2023-05-02T13:21:08.043Z,40.85
2023-05-02T13:23:45.942Z,41.03
2023-05-02T13:26:23.313Z,41.40
2023-05-02T13:29:00.280Z,41.52
2023-05-02T13:31:39.640Z,41.44
2023-05-02T13:34:16.170Z,41.25
2023-05-02T13:36:52.742Z,41.67
2023-05-02T13:39:29.671Z,42.37
2023-05-02T13:42:06.775Z,43.68
2023-05-02T13:44:43.887Z,45.55
2023-05-02T13:47:21.652Z,47.22
2023-05-02T13:49:58.871Z,48.27
2023-05-02T13:52:35.651Z,50.06
2023-05-02T13:55:13.685Z,51.30
2023-05-02T13:57:51.015Z,51.69
2023-05-02T14:00:29.287Z,51.76
2023-05-02T14:03:07.185Z,53.00
2023-05-02T14:05:44.672Z,54.12
2023-05-02T14:08:21.642Z,54.90
2023-05-02T14:10:58.664Z,55.89
2023-05-02T14:13:35.063Z,56.57
2023-05-02T14:16:12.531Z,57.92
2023-05-02T14:18:50.166Z,58.89
2023-05-02T14:21:27.393Z,60.05
2023-05-02T14:24:04.406Z,61.82
2023-05-02T14:26:41.151Z,61.60
2023-05-02T14:29:18.603Z,62.92
2023-05-02T14:31:55.724Z,64.34
2023-05-02T14:34:32.866Z,64.46
2023-05-02T14:37:11.179Z,65.13
2023-05-02T14:39:50.829Z,66.07
2023-05-02T14:42:28.876Z,67.34
2023-05-02T14:45:06.654Z,67.73
2023-05-02T14:47:43.877Z,69.00
2023-05-02T14:50:21.818Z,69.22
2023-05-02T14:52:59.778Z,69.33
2023-05-02T14:55:41.789Z,69.30
2023-05-02T14:58:20.756Z,69.78
2023-05-02T15:01:00.807Z,70.63
2023-05-02T15:03:52.362Z,71.27
2023-05-02T15:06:37.353Z,71.72
2023-05-02T15:09:14.251Z,72.94
2023-05-02T15:11:54.025Z,73.27
2023-05-02T15:14:30.920Z,76.58
2023-05-02T15:17:08.068Z,77.66
2023-05-02T15:19:44.883Z,76.40
2023-05-02T15:22:24.293Z,74.21
2023-05-02T15:25:01.391Z,73.76
2023-05-02T15:27:40.218Z,74.13
2023-05-02T15:30:19.537Z,74.34
2023-05-02T15:32:59.553Z,74.95
2023-05-02T15:35:36.975Z,75.00
2023-05-02T15:38:14.297Z,73.79
2023-05-02T15:41:00.263Z,73.79
2023-05-02T15:43:37.477Z,73.85
2023-05-02T15:46:14.683Z,74.51
2023-05-02T15:48:51.539Z,74.95
2023-05-02T15:51:28.189Z,74.93
2023-05-02T15:54:07.037Z,74.93
2023-05-02T15:56:44.614Z,75.22
2023-05-02T15:59:21.569Z,75.79
2023-05-02T16:01:58.336Z,76.40
2023-05-02T16:04:35.114Z,76.20
2023-05-02T16:07:11.758Z,75.80
2023-05-02T16:09:48.361Z,76.13
2023-05-02T16:12:26.337Z,76.55
2023-05-02T16:15:03.964Z,77.00
2023-05-02T16:17:42.979Z,76.74
2023-05-02T16:20:21.202Z,76.73
2023-05-02T16:22:57.904Z,77.16
2023-05-02T16:25:36.124Z,77.56
2023-05-02T16:28:15.940Z,77.81
2023-05-02T16:30:53.505Z,77.71
2023-05-02T16:33:31.371Z,77.73
2023-05-02T16:36:11.725Z,78.07
2023-05-02T16:38:49.310Z,78.31
2023-05-02T16:41:26.866Z,78.69
2023-05-02T16:44:03.887Z,79.13
2023-05-02T16:46:41.546Z,79.45
2023-05-02T16:49:18.528Z,79.63
2023-05-02T16:51:56.191Z,79.88
2023-05-02T16:54:33.042Z,80.29
2023-05-02T16:57:10.896Z,80.32
2023-05-02T16:59:48.592Z,80.61
2023-05-02T17:02:25.866Z,80.76
2023-05-02T17:05:02.524Z,80.96
2023-05-02T17:07:40.131Z,80.94
2023-05-02T17:10:19.515Z,80.49
2023-05-02T17:13:01.900Z,80.58
2023-05-02T17:15:42.819Z,80.51
2023-05-02T17:18:19.748Z,80.29
2023-05-02T17:20:58.077Z,80.83
2023-05-02T17:23:37.414Z,80.94
2023-05-02T17:26:15.698Z,81.16
2023-05-02T17:28:53.755Z,81.75
2023-05-02T17:31:30.928Z,82.05
2023-05-02T17:34:08.800Z,82.16
2023-05-02T17:36:46.453Z,82.22
2023-05-02T17:39:25.466Z,82.54
2023-05-02T17:42:02.741Z,82.96
2023-05-02T17:44:42.375Z,83.28
2023-05-02T17:47:20.180Z,83.62
2023-05-02T17:50:00.164Z,83.55
2023-05-02T17:52:38.948Z,83.68
2023-05-02T17:55:19.805Z,83.88
